sensor_id;sensor_type;location;lat;lon;timestamp;P1;durP1;ratioP1;P2;durP2;ratioP2
84388;SDS011;74589;48.846;2.382;2024-01-30T00:01:25;10.52;;;9.48;;
84388;SDS011;74589;48.846;2.382;2024-01-30T00:03:50;13.65;;;10.68;;
84388;SDS011;74589;48.846;2.382;2024-01-30T00:06:18;12.55;;;10.15;;
84388;SDS011;74589;48.846;2.382;2024-01-30T00:08:45;11.02;;;9.32;;
84388;SDS011;74589;48.846;2.382;2024-01-30T00:11:13;10.48;;;9.48;;
84388;SDS011;74589;48.846;2.382;2024-01-30T00:13:39;10.30;;;9.20;;
84388;SDS011;74589;48.846;2.382;2024-01-30T00:16:05;12.10;;;9.23;;
84388;SDS011;74589;48.846;2.382;2024-01-30T00:18:31;9.85;;;8.85;;
84388;SDS011;74589;48.846;2.382;2024-01-30T00:20:57;10.07;;;8.88;;
84388;SDS011;74589;48.846;2.382;2024-01-30T00:23:22;13.15;;;9.23;;
84388;SDS011;74589;48.846;2.382;2024-01-30T00:25:48;11.48;;;9.32;;
84388;SDS011;74589;48.846;2.382;2024-01-30T00:28:14;10.40;;;9.30;;
84388;SDS011;74589;48.846;2.382;2024-01-30T00:30:40;10.88;;;9.20;;
84388;SDS011;74589;48.846;2.382;2024-01-30T00:33:06;11.48;;;8.77;;
84388;SDS011;74589;48.846;2.382;2024-01-30T00:35:32;10.68;;;9.02;;
84388;SDS011;74589;48.846;2.382;2024-01-30T00:37:58;9.65;;;8.55;;
84388;SDS011;74589;48.846;2.382;2024-01-30T00:40:24;9.35;;;8.43;;
84388;SDS011;74589;48.846;2.382;2024-01-30T00:42:49;11.55;;;8.82;;
84388;SDS011;74589;48.846;2.382;2024-01-30T00:45:15;10.48;;;8.93;;
84388;SDS011;74589;48.846;2.382;2024-01-30T00:47:42;10.82;;;9.30;;
84388;SDS011;74589;48.846;2.382;2024-01-30T00:50:08;10.18;;;8.93;;
84388;SDS011;74589;48.846;2.382;2024-01-30T00:52:34;9.85;;;8.82;;
84388;SDS011;74589;48.846;2.382;2024-01-30T00:55:00;10.77;;;8.73;;
84388;SDS011;74589;48.846;2.382;2024-01-30T00:57:26;9.95;;;8.68;;
84388;SDS011;74589;48.846;2.382;2024-01-30T00:59:52;10.60;;;9.38;;
84388;SDS011;74589;48.846;2.382;2024-01-30T01:02:17;10.90;;;9.25;;
84388;SDS011;74589;48.846;2.382;2024-01-30T01:04:43;9.88;;;8.85;;
84388;SDS011;74589;48.846;2.382;2024-01-30T01:07:09;9.88;;;8.85;;
84388;SDS011;74589;48.846;2.382;2024-01-30T01:09:35;10.10;;;8.80;;
84388;SDS011;74589;48.846;2.382;2024-01-30T01:12:02;9.77;;;8.60;;
84388;SDS011;74589;48.846;2.382;2024-01-30T01:14:28;10.30;;;9.15;;
84388;SDS011;74589;48.846;2.382;2024-01-30T01:16:53;9.20;;;8.30;;
84388;SDS011;74589;48.846;2.382;2024-01-30T01:19:19;11.80;;;8.35;;
84388;SDS011;74589;48.846;2.382;2024-01-30T01:21:45;9.73;;;8.55;;
84388;SDS011;74589;48.846;2.382;2024-01-30T01:24:11;9.82;;;8.10;;
84388;SDS011;74589;48.846;2.382;2024-01-30T01:26:36;10.13;;;8.13;;
84388;SDS011;74589;48.846;2.382;2024-01-30T01:29:02;8.25;;;7.45;;
84388;SDS011;74589;48.846;2.382;2024-01-30T01:31:34;9.95;;;8.05;;
84388;SDS011;74589;48.846;2.382;2024-01-30T01:34:04;8.50;;;7.53;;
84388;SDS011;74589;48.846;2.382;2024-01-30T01:36:30;8.93;;;7.97;;
84388;SDS011;74589;48.846;2.382;2024-01-30T01:38:56;9.18;;;7.38;;
84388;SDS011;74589;48.846;2.382;2024-01-30T01:41:22;8.95;;;7.88;;
84388;SDS011;74589;48.846;2.382;2024-01-30T01:43:47;10.38;;;7.90;;
84388;SDS011;74589;48.846;2.382;2024-01-30T01:46:13;9.65;;;8.05;;
84388;SDS011;74589;48.846;2.382;2024-01-30T01:48:38;8.20;;;7.38;;
84388;SDS011;74589;48.846;2.382;2024-01-30T01:51:05;8.52;;;7.70;;
84388;SDS011;74589;48.846;2.382;2024-01-30T01:53:31;8.55;;;7.20;;
84388;SDS011;74589;48.846;2.382;2024-01-30T01:55:57;8.05;;;7.20;;
84388;SDS011;74589;48.846;2.382;2024-01-30T01:58:23;8.68;;;7.40;;
84388;SDS011;74589;48.846;2.382;2024-01-30T02:00:53;8.82;;;7.38;;
84388;SDS011;74589;48.846;2.382;2024-01-30T02:03:20;8.10;;;7.18;;
84388;SDS011;74589;48.846;2.382;2024-01-30T02:05:46;10.25;;;7.93;;
84388;SDS011;74589;48.846;2.382;2024-01-30T02:08:12;7.75;;;7.05;;
84388;SDS011;74589;48.846;2.382;2024-01-30T02:10:37;9.93;;;7.55;;
84388;SDS011;74589;48.846;2.382;2024-01-30T02:13:03;9.52;;;7.50;;
84388;SDS011;74589;48.846;2.382;2024-01-30T02:15:29;8.20;;;6.68;;
84388;SDS011;74589;48.846;2.382;2024-01-30T02:17:55;9.23;;;7.20;;
84388;SDS011;74589;48.846;2.382;2024-01-30T02:20:21;7.47;;;6.75;;
84388;SDS011;74589;48.846;2.382;2024-01-30T02:22:48;8.70;;;6.80;;
84388;SDS011;74589;48.846;2.382;2024-01-30T02:25:14;7.43;;;6.70;;
84388;SDS011;74589;48.846;2.382;2024-01-30T02:27:40;7.88;;;6.70;;
84388;SDS011;74589;48.846;2.382;2024-01-30T02:30:05;7.85;;;6.85;;
84388;SDS011;74589;48.846;2.382;2024-01-30T02:32:31;9.18;;;6.60;;
84388;SDS011;74589;48.846;2.382;2024-01-30T02:34:57;7.28;;;6.40;;
84388;SDS011;74589;48.846;2.382;2024-01-30T02:37:23;8.73;;;6.70;;
84388;SDS011;74589;48.846;2.382;2024-01-30T02:39:48;8.25;;;6.90;;
84388;SDS011;74589;48.846;2.382;2024-01-30T02:42:14;7.80;;;6.05;;
84388;SDS011;74589;48.846;2.382;2024-01-30T02:44:40;7.25;;;6.50;;
84388;SDS011;74589;48.846;2.382;2024-01-30T02:47:05;6.72;;;6.05;;
84388;SDS011;74589;48.846;2.382;2024-01-30T02:49:31;7.00;;;6.03;;
84388;SDS011;74589;48.846;2.382;2024-01-30T02:51:57;6.65;;;5.95;;
84388;SDS011;74589;48.846;2.382;2024-01-30T02:54:22;7.35;;;6.30;;
84388;SDS011;74589;48.846;2.382;2024-01-30T02:56:48;7.05;;;5.88;;
84388;SDS011;74589;48.846;2.382;2024-01-30T02:59:13;6.82;;;6.13;;
84388;SDS011;74589;48.846;2.382;2024-01-30T03:01:43;7.55;;;5.70;;
84388;SDS011;74589;48.846;2.382;2024-01-30T03:04:09;6.65;;;5.88;;
84388;SDS011;74589;48.846;2.382;2024-01-30T03:06:35;7.38;;;5.88;;
84388;SDS011;74589;48.846;2.382;2024-01-30T03:09:01;7.13;;;5.45;;
84388;SDS011;74589;48.846;2.382;2024-01-30T03:11:26;7.03;;;5.95;;
84388;SDS011;74589;48.846;2.382;2024-01-30T03:13:52;6.80;;;5.60;;
84388;SDS011;74589;48.846;2.382;2024-01-30T03:16:18;7.30;;;5.68;;
84388;SDS011;74589;48.846;2.382;2024-01-30T03:18:43;6.38;;;5.78;;
84388;SDS011;74589;48.846;2.382;2024-01-30T03:21:09;7.85;;;6.03;;
84388;SDS011;74589;48.846;2.382;2024-01-30T03:23:34;6.47;;;5.88;;
84388;SDS011;74589;48.846;2.382;2024-01-30T03:26:00;6.38;;;5.15;;
84388;SDS011;74589;48.846;2.382;2024-01-30T03:28:26;6.40;;;5.40;;
84388;SDS011;74589;48.846;2.382;2024-01-30T03:30:51;6.65;;;5.53;;
84388;SDS011;74589;48.846;2.382;2024-01-30T03:33:17;5.80;;;5.10;;
84388;SDS011;74589;48.846;2.382;2024-01-30T03:35:42;6.00;;;5.40;;
84388;SDS011;74589;48.846;2.382;2024-01-30T03:38:08;6.38;;;5.63;;
84388;SDS011;74589;48.846;2.382;2024-01-30T03:40:34;5.75;;;5.07;;
84388;SDS011;74589;48.846;2.382;2024-01-30T03:42:59;6.15;;;5.32;;
84388;SDS011;74589;48.846;2.382;2024-01-30T03:45:25;7.18;;;5.53;;
84388;SDS011;74589;48.846;2.382;2024-01-30T03:47:50;5.93;;;5.32;;
84388;SDS011;74589;48.846;2.382;2024-01-30T03:50:16;6.15;;;5.00;;
84388;SDS011;74589;48.846;2.382;2024-01-30T03:52:41;6.20;;;5.20;;
84388;SDS011;74589;48.846;2.382;2024-01-30T03:55:07;5.55;;;5.05;;
84388;SDS011;74589;48.846;2.382;2024-01-30T03:57:33;6.13;;;5.53;;
84388;SDS011;74589;48.846;2.382;2024-01-30T03:59:58;7.57;;;5.53;;
84388;SDS011;74589;48.846;2.382;2024-01-30T04:02:24;7.25;;;5.43;;
84388;SDS011;74589;48.846;2.382;2024-01-30T04:04:50;9.88;;;5.45;;
84388;SDS011;74589;48.846;2.382;2024-01-30T04:07:15;5.93;;;5.32;;
84388;SDS011;74589;48.846;2.382;2024-01-30T04:09:41;6.47;;;5.30;;
84388;SDS011;74589;48.846;2.382;2024-01-30T04:12:07;5.65;;;5.05;;
84388;SDS011;74589;48.846;2.382;2024-01-30T04:14:32;5.47;;;4.97;;
84388;SDS011;74589;48.846;2.382;2024-01-30T04:16:58;6.28;;;5.05;;
84388;SDS011;74589;48.846;2.382;2024-01-30T04:19:24;6.72;;;4.93;;
84388;SDS011;74589;48.846;2.382;2024-01-30T04:21:49;7.03;;;5.47;;
84388;SDS011;74589;48.846;2.382;2024-01-30T04:24:15;6.90;;;5.70;;
84388;SDS011;74589;48.846;2.382;2024-01-30T04:26:43;7.93;;;5.35;;
84388;SDS011;74589;48.846;2.382;2024-01-30T04:29:09;5.65;;;4.82;;
84388;SDS011;74589;48.846;2.382;2024-01-30T04:31:36;6.15;;;5.38;;
84388;SDS011;74589;48.846;2.382;2024-01-30T04:34:02;7.18;;;5.28;;
84388;SDS011;74589;48.846;2.382;2024-01-30T04:36:27;7.05;;;5.45;;
84388;SDS011;74589;48.846;2.382;2024-01-30T04:38:53;6.43;;;5.47;;
84388;SDS011;74589;48.846;2.382;2024-01-30T04:41:19;7.97;;;5.65;;
84388;SDS011;74589;48.846;2.382;2024-01-30T04:43:44;5.50;;;4.95;;
84388;SDS011;74589;48.846;2.382;2024-01-30T04:46:10;6.38;;;5.40;;
84388;SDS011;74589;48.846;2.382;2024-01-30T04:48:35;7.95;;;5.32;;
84388;SDS011;74589;48.846;2.382;2024-01-30T04:51:01;6.20;;;5.45;;
84388;SDS011;74589;48.846;2.382;2024-01-30T04:53:29;5.88;;;5.28;;
84388;SDS011;74589;48.846;2.382;2024-01-30T04:55:56;7.03;;;5.50;;
84388;SDS011;74589;48.846;2.382;2024-01-30T04:58:21;6.55;;;5.70;;
84388;SDS011;74589;48.846;2.382;2024-01-30T05:00:47;7.30;;;5.90;;
84388;SDS011;74589;48.846;2.382;2024-01-30T05:03:16;6.55;;;5.47;;
84388;SDS011;74589;48.846;2.382;2024-01-30T05:05:42;8.80;;;5.80;;
84388;SDS011;74589;48.846;2.382;2024-01-30T05:08:08;6.32;;;5.72;;
84388;SDS011;74589;48.846;2.382;2024-01-30T05:10:33;8.75;;;6.22;;
84388;SDS011;74589;48.846;2.382;2024-01-30T05:12:59;7.18;;;6.20;;
84388;SDS011;74589;48.846;2.382;2024-01-30T05:15:25;8.43;;;6.10;;
84388;SDS011;74589;48.846;2.382;2024-01-30T05:17:50;7.32;;;6.28;;
84388;SDS011;74589;48.846;2.382;2024-01-30T05:20:16;7.90;;;6.03;;
84388;SDS011;74589;48.846;2.382;2024-01-30T05:22:42;6.90;;;5.80;;
84388;SDS011;74589;48.846;2.382;2024-01-30T05:25:10;8.68;;;6.38;;
84388;SDS011;74589;48.846;2.382;2024-01-30T05:27:37;7.43;;;6.10;;
84388;SDS011;74589;48.846;2.382;2024-01-30T05:30:02;8.00;;;6.03;;
84388;SDS011;74589;48.846;2.382;2024-01-30T05:32:29;10.23;;;6.20;;
84388;SDS011;74589;48.846;2.382;2024-01-30T05:34:54;8.32;;;6.10;;
84388;SDS011;74589;48.846;2.382;2024-01-30T05:37:20;7.10;;;6.00;;
84388;SDS011;74589;48.846;2.382;2024-01-30T05:39:46;6.63;;;5.70;;
84388;SDS011;74589;48.846;2.382;2024-01-30T05:42:11;9.70;;;6.78;;
84388;SDS011;74589;48.846;2.382;2024-01-30T05:44:37;8.90;;;6.20;;
84388;SDS011;74589;48.846;2.382;2024-01-30T05:47:03;9.02;;;5.60;;
84388;SDS011;74589;48.846;2.382;2024-01-30T05:49:29;6.47;;;5.30;;
84388;SDS011;74589;48.846;2.382;2024-01-30T05:51:54;9.15;;;6.30;;
84388;SDS011;74589;48.846;2.382;2024-01-30T05:54:20;7.07;;;5.63;;
84388;SDS011;74589;48.846;2.382;2024-01-30T05:56:46;8.35;;;5.50;;
84388;SDS011;74589;48.846;2.382;2024-01-30T05:59:12;7.00;;;5.20;;
84388;SDS011;74589;48.846;2.382;2024-01-30T06:01:37;5.90;;;5.30;;
84388;SDS011;74589;48.846;2.382;2024-01-30T06:04:03;6.60;;;5.10;;
84388;SDS011;74589;48.846;2.382;2024-01-30T06:06:28;6.63;;;5.20;;
84388;SDS011;74589;48.846;2.382;2024-01-30T06:08:54;7.00;;;4.85;;
84388;SDS011;74589;48.846;2.382;2024-01-30T06:11:21;7.78;;;6.25;;
84388;SDS011;74589;48.846;2.382;2024-01-30T06:13:46;7.88;;;6.40;;
84388;SDS011;74589;48.846;2.382;2024-01-30T06:16:12;6.40;;;4.70;;
84388;SDS011;74589;48.846;2.382;2024-01-30T06:18:38;6.03;;;5.03;;
84388;SDS011;74589;48.846;2.382;2024-01-30T06:21:04;6.55;;;4.68;;
84388;SDS011;74589;48.846;2.382;2024-01-30T06:23:30;9.00;;;5.07;;
84388;SDS011;74589;48.846;2.382;2024-01-30T06:25:55;5.55;;;4.90;;
84388;SDS011;74589;48.846;2.382;2024-01-30T06:28:21;5.88;;;4.70;;
84388;SDS011;74589;48.846;2.382;2024-01-30T06:30:47;7.10;;;4.72;;
84388;SDS011;74589;48.846;2.382;2024-01-30T06:33:13;5.78;;;4.88;;
84388;SDS011;74589;48.846;2.382;2024-01-30T06:35:38;6.78;;;4.97;;
84388;SDS011;74589;48.846;2.382;2024-01-30T06:38:05;6.30;;;4.57;;
84388;SDS011;74589;48.846;2.382;2024-01-30T06:40:31;8.40;;;4.88;;
84388;SDS011;74589;48.846;2.382;2024-01-30T06:42:57;6.97;;;4.45;;
84388;SDS011;74589;48.846;2.382;2024-01-30T06:45:22;6.40;;;4.85;;
84388;SDS011;74589;48.846;2.382;2024-01-30T06:47:48;6.95;;;5.05;;
84388;SDS011;74589;48.846;2.382;2024-01-30T06:50:14;7.50;;;4.88;;
84388;SDS011;74589;48.846;2.382;2024-01-30T06:52:39;7.68;;;4.93;;
84388;SDS011;74589;48.846;2.382;2024-01-30T06:55:05;6.38;;;4.70;;
84388;SDS011;74589;48.846;2.382;2024-01-30T06:57:31;6.05;;;4.80;;
84388;SDS011;74589;48.846;2.382;2024-01-30T06:59:57;6.72;;;4.75;;
84388;SDS011;74589;48.846;2.382;2024-01-30T07:02:23;5.70;;;4.40;;
84388;SDS011;74589;48.846;2.382;2024-01-30T07:04:48;7.13;;;4.95;;
84388;SDS011;74589;48.846;2.382;2024-01-30T07:07:14;6.32;;;4.60;;
84388;SDS011;74589;48.846;2.382;2024-01-30T07:09:40;8.68;;;5.07;;
84388;SDS011;74589;48.846;2.382;2024-01-30T07:12:06;7.13;;;4.90;;
84388;SDS011;74589;48.846;2.382;2024-01-30T07:14:32;7.28;;;4.88;;
84388;SDS011;74589;48.846;2.382;2024-01-30T07:16:58;6.65;;;4.60;;
84388;SDS011;74589;48.846;2.382;2024-01-30T07:19:23;6.95;;;5.00;;
84388;SDS011;74589;48.846;2.382;2024-01-30T07:21:49;6.40;;;4.75;;
84388;SDS011;74589;48.846;2.382;2024-01-30T07:24:15;6.07;;;4.60;;
84388;SDS011;74589;48.846;2.382;2024-01-30T07:26:40;6.75;;;4.65;;
84388;SDS011;74589;48.846;2.382;2024-01-30T07:29:06;7.38;;;5.07;;
84388;SDS011;74589;48.846;2.382;2024-01-30T07:31:31;7.55;;;5.15;;
84388;SDS011;74589;48.846;2.382;2024-01-30T07:33:57;7.88;;;5.60;;
84388;SDS011;74589;48.846;2.382;2024-01-30T07:36:23;8.57;;;5.13;;
84388;SDS011;74589;48.846;2.382;2024-01-30T07:38:48;6.60;;;5.13;;
84388;SDS011;74589;48.846;2.382;2024-01-30T07:41:14;8.07;;;5.22;;
84388;SDS011;74589;48.846;2.382;2024-01-30T07:43:39;7.13;;;5.40;;
84388;SDS011;74589;48.846;2.382;2024-01-30T07:46:05;7.40;;;4.78;;
84388;SDS011;74589;48.846;2.382;2024-01-30T07:48:31;8.90;;;5.10;;
84388;SDS011;74589;48.846;2.382;2024-01-30T07:50:59;8.07;;;5.15;;
84388;SDS011;74589;48.846;2.382;2024-01-30T07:53:24;7.85;;;5.25;;
84388;SDS011;74589;48.846;2.382;2024-01-30T07:55:50;8.73;;;5.32;;
84388;SDS011;74589;48.846;2.382;2024-01-30T07:58:16;9.55;;;4.93;;
84388;SDS011;74589;48.846;2.382;2024-01-30T08:00:41;6.55;;;5.20;;
84388;SDS011;74589;48.846;2.382;2024-01-30T08:03:07;8.77;;;5.45;;
84388;SDS011;74589;48.846;2.382;2024-01-30T08:05:32;7.57;;;4.80;;
84388;SDS011;74589;48.846;2.382;2024-01-30T08:07:58;6.85;;;5.10;;
84388;SDS011;74589;48.846;2.382;2024-01-30T08:10:24;8.57;;;5.40;;
84388;SDS011;74589;48.846;2.382;2024-01-30T08:12:50;6.55;;;5.25;;
84388;SDS011;74589;48.846;2.382;2024-01-30T08:15:15;6.70;;;5.10;;
84388;SDS011;74589;48.846;2.382;2024-01-30T08:17:41;6.47;;;5.00;;
84388;SDS011;74589;48.846;2.382;2024-01-30T08:20:07;7.88;;;5.55;;
84388;SDS011;74589;48.846;2.382;2024-01-30T08:22:38;8.68;;;5.53;;
84388;SDS011;74589;48.846;2.382;2024-01-30T08:25:05;7.65;;;5.65;;
84388;SDS011;74589;48.846;2.382;2024-01-30T08:27:31;6.72;;;5.55;;
84388;SDS011;74589;48.846;2.382;2024-01-30T08:29:57;8.55;;;5.45;;
84388;SDS011;74589;48.846;2.382;2024-01-30T08:32:22;8.30;;;5.38;;
84388;SDS011;74589;48.846;2.382;2024-01-30T08:34:48;8.73;;;5.03;;
84388;SDS011;74589;48.846;2.382;2024-01-30T08:37:14;8.55;;;5.35;;
84388;SDS011;74589;48.846;2.382;2024-01-30T08:39:41;5.50;;;4.82;;
84388;SDS011;74589;48.846;2.382;2024-01-30T08:42:08;6.50;;;5.07;;
84388;SDS011;74589;48.846;2.382;2024-01-30T08:44:33;6.47;;;4.63;;
84388;SDS011;74589;48.846;2.382;2024-01-30T08:46:59;7.53;;;5.15;;
84388;SDS011;74589;48.846;2.382;2024-01-30T08:49:25;9.15;;;5.70;;
84388;SDS011;74589;48.846;2.382;2024-01-30T08:51:50;7.15;;;5.15;;
84388;SDS011;74589;48.846;2.382;2024-01-30T08:54:16;6.88;;;5.50;;
84388;SDS011;74589;48.846;2.382;2024-01-30T08:56:42;7.65;;;5.60;;
84388;SDS011;74589;48.846;2.382;2024-01-30T08:59:08;7.60;;;5.35;;
84388;SDS011;74589;48.846;2.382;2024-01-30T09:01:33;8.88;;;5.78;;
84388;SDS011;74589;48.846;2.382;2024-01-30T09:03:59;7.20;;;5.47;;
84388;SDS011;74589;48.846;2.382;2024-01-30T09:06:25;7.88;;;5.22;;
84388;SDS011;74589;48.846;2.382;2024-01-30T09:08:53;9.23;;;5.32;;
84388;SDS011;74589;48.846;2.382;2024-01-30T09:11:18;9.25;;;5.93;;
84388;SDS011;74589;48.846;2.382;2024-01-30T09:13:44;8.95;;;5.82;;
84388;SDS011;74589;48.846;2.382;2024-01-30T09:16:10;8.77;;;5.65;;
84388;SDS011;74589;48.846;2.382;2024-01-30T09:18:35;8.90;;;5.32;;
84388;SDS011;74589;48.846;2.382;2024-01-30T09:21:01;7.55;;;5.60;;
84388;SDS011;74589;48.846;2.382;2024-01-30T09:23:27;11.38;;;5.63;;
84388;SDS011;74589;48.846;2.382;2024-01-30T09:25:53;9.07;;;5.60;;
84388;SDS011;74589;48.846;2.382;2024-01-30T09:28:19;7.75;;;5.57;;
84388;SDS011;74589;48.846;2.382;2024-01-30T09:30:44;11.27;;;6.03;;
84388;SDS011;74589;48.846;2.382;2024-01-30T09:33:10;7.10;;;5.70;;
84388;SDS011;74589;48.846;2.382;2024-01-30T09:35:36;8.43;;;5.70;;
84388;SDS011;74589;48.846;2.382;2024-01-30T09:38:02;8.98;;;6.05;;
84388;SDS011;74589;48.846;2.382;2024-01-30T09:40:28;10.23;;;6.07;;
84388;SDS011;74589;48.846;2.382;2024-01-30T09:42:54;8.68;;;5.30;;
84388;SDS011;74589;48.846;2.382;2024-01-30T09:45:24;8.85;;;6.28;;
84388;SDS011;74589;48.846;2.382;2024-01-30T09:47:50;8.65;;;6.13;;
84388;SDS011;74589;48.846;2.382;2024-01-30T09:50:16;8.38;;;6.10;;
84388;SDS011;74589;48.846;2.382;2024-01-30T09:52:42;8.70;;;6.43;;
84388;SDS011;74589;48.846;2.382;2024-01-30T09:55:09;8.45;;;6.20;;
84388;SDS011;74589;48.846;2.382;2024-01-30T09:57:35;10.52;;;6.75;;
84388;SDS011;74589;48.846;2.382;2024-01-30T10:00:02;8.77;;;6.20;;
84388;SDS011;74589;48.846;2.382;2024-01-30T10:02:29;8.27;;;6.28;;
84388;SDS011;74589;48.846;2.382;2024-01-30T10:04:56;8.85;;;6.28;;
84388;SDS011;74589;48.846;2.382;2024-01-30T10:07:22;11.57;;;6.13;;
84388;SDS011;74589;48.846;2.382;2024-01-30T10:09:48;13.32;;;6.55;;
84388;SDS011;74589;48.846;2.382;2024-01-30T10:12:14;14.40;;;6.45;;
84388;SDS011;74589;48.846;2.382;2024-01-30T10:14:41;13.52;;;6.82;;
84388;SDS011;74589;48.846;2.382;2024-01-30T10:17:08;8.38;;;5.75;;
84388;SDS011;74589;48.846;2.382;2024-01-30T10:19:37;9.75;;;6.40;;
84388;SDS011;74589;48.846;2.382;2024-01-30T10:22:04;10.23;;;6.72;;
84388;SDS011;74589;48.846;2.382;2024-01-30T10:24:30;9.57;;;6.40;;
84388;SDS011;74589;48.846;2.382;2024-01-30T10:26:56;8.55;;;6.18;;
84388;SDS011;74589;48.846;2.382;2024-01-30T10:29:22;13.70;;;6.50;;
84388;SDS011;74589;48.846;2.382;2024-01-30T10:32:00;9.25;;;6.90;;
84388;SDS011;74589;48.846;2.382;2024-01-30T10:34:27;10.57;;;6.78;;
84388;SDS011;74589;48.846;2.382;2024-01-30T10:36:59;11.52;;;6.50;;
84388;SDS011;74589;48.846;2.382;2024-01-30T10:39:31;10.10;;;6.15;;
84388;SDS011;74589;48.846;2.382;2024-01-30T10:42:03;16.25;;;10.85;;
84388;SDS011;74589;48.846;2.382;2024-01-30T10:44:33;22.20;;;14.15;;
84388;SDS011;74589;48.846;2.382;2024-01-30T10:47:06;10.55;;;8.52;;
84388;SDS011;74589;48.846;2.382;2024-01-30T10:49:34;13.68;;;8.05;;
84388;SDS011;74589;48.846;2.382;2024-01-30T10:52:01;12.45;;;7.38;;
84388;SDS011;74589;48.846;2.382;2024-01-30T10:54:29;13.52;;;6.95;;
84388;SDS011;74589;48.846;2.382;2024-01-30T10:56:56;10.07;;;6.90;;
84388;SDS011;74589;48.846;2.382;2024-01-30T10:59:26;11.88;;;7.28;;
84388;SDS011;74589;48.846;2.382;2024-01-30T11:01:53;9.05;;;6.70;;
84388;SDS011;74589;48.846;2.382;2024-01-30T11:04:19;12.30;;;6.95;;
84388;SDS011;74589;48.846;2.382;2024-01-30T11:06:45;11.15;;;6.78;;
84388;SDS011;74589;48.846;2.382;2024-01-30T11:09:16;9.55;;;6.20;;
84388;SDS011;74589;48.846;2.382;2024-01-30T11:11:55;11.68;;;6.97;;
84388;SDS011;74589;48.846;2.382;2024-01-30T11:14:25;11.00;;;7.07;;
84388;SDS011;74589;48.846;2.382;2024-01-30T11:16:51;11.13;;;6.80;;
84388;SDS011;74589;48.846;2.382;2024-01-30T11:19:26;11.68;;;6.63;;
84388;SDS011;74589;48.846;2.382;2024-01-30T11:21:55;10.90;;;7.10;;
84388;SDS011;74589;48.846;2.382;2024-01-30T11:24:24;10.65;;;6.35;;
84388;SDS011;74589;48.846;2.382;2024-01-30T11:26:55;10.20;;;7.00;;
84388;SDS011;74589;48.846;2.382;2024-01-30T11:29:29;9.95;;;6.65;;
84388;SDS011;74589;48.846;2.382;2024-01-30T11:31:55;12.05;;;6.50;;
84388;SDS011;74589;48.846;2.382;2024-01-30T11:34:21;12.40;;;7.78;;
84388;SDS011;74589;48.846;2.382;2024-01-30T11:36:51;12.60;;;7.05;;
84388;SDS011;74589;48.846;2.382;2024-01-30T11:39:24;13.40;;;7.32;;
84388;SDS011;74589;48.846;2.382;2024-01-30T11:41:51;11.32;;;6.97;;
84388;SDS011;74589;48.846;2.382;2024-01-30T11:44:18;10.32;;;6.70;;
84388;SDS011;74589;48.846;2.382;2024-01-30T11:46:45;9.77;;;6.97;;
84388;SDS011;74589;48.846;2.382;2024-01-30T11:49:12;9.88;;;6.63;;
84388;SDS011;74589;48.846;2.382;2024-01-30T11:51:37;11.55;;;6.50;;
84388;SDS011;74589;48.846;2.382;2024-01-30T11:54:03;8.95;;;5.88;;
84388;SDS011;74589;48.846;2.382;2024-01-30T11:56:29;10.75;;;5.90;;
84388;SDS011;74589;48.846;2.382;2024-01-30T11:58:55;11.43;;;6.05;;
84388;SDS011;74589;48.846;2.382;2024-01-30T12:01:20;10.10;;;4.60;;
84388;SDS011;74589;48.846;2.382;2024-01-30T12:03:49;8.38;;;4.28;;
84388;SDS011;74589;48.846;2.382;2024-01-30T12:06:15;8.13;;;4.43;;
84388;SDS011;74589;48.846;2.382;2024-01-30T12:08:41;9.45;;;3.75;;
84388;SDS011;74589;48.846;2.382;2024-01-30T12:11:07;8.65;;;3.20;;
84388;SDS011;74589;48.846;2.382;2024-01-30T12:13:35;8.10;;;3.38;;
84388;SDS011;74589;48.846;2.382;2024-01-30T12:16:01;6.95;;;3.28;;
84388;SDS011;74589;48.846;2.382;2024-01-30T12:18:27;6.63;;;3.22;;
84388;SDS011;74589;48.846;2.382;2024-01-30T12:20:59;6.40;;;2.97;;
84388;SDS011;74589;48.846;2.382;2024-01-30T12:23:26;4.47;;;2.70;;
84388;SDS011;74589;48.846;2.382;2024-01-30T12:25:53;3.67;;;2.40;;
84388;SDS011;74589;48.846;2.382;2024-01-30T12:28:19;5.00;;;2.40;;
84388;SDS011;74589;48.846;2.382;2024-01-30T12:30:45;4.85;;;2.35;;
84388;SDS011;74589;48.846;2.382;2024-01-30T12:33:16;4.35;;;2.40;;
84388;SDS011;74589;48.846;2.382;2024-01-30T12:35:46;3.85;;;2.30;;
84388;SDS011;74589;48.846;2.382;2024-01-30T12:38:15;4.20;;;2.30;;
84388;SDS011;74589;48.846;2.382;2024-01-30T12:40:40;4.93;;;2.47;;
84388;SDS011;74589;48.846;2.382;2024-01-30T12:43:06;3.85;;;2.42;;
84388;SDS011;74589;48.846;2.382;2024-01-30T12:45:32;4.22;;;2.40;;
84388;SDS011;74589;48.846;2.382;2024-01-30T12:47:57;6.47;;;2.50;;
84388;SDS011;74589;48.846;2.382;2024-01-30T12:50:23;5.80;;;2.45;;
84388;SDS011;74589;48.846;2.382;2024-01-30T12:52:49;5.78;;;2.55;;
84388;SDS011;74589;48.846;2.382;2024-01-30T12:55:15;5.78;;;2.60;;
84388;SDS011;74589;48.846;2.382;2024-01-30T12:57:41;4.30;;;2.20;;
84388;SDS011;74589;48.846;2.382;2024-01-30T13:00:07;4.25;;;2.45;;
84388;SDS011;74589;48.846;2.382;2024-01-30T13:02:34;3.45;;;2.35;;
84388;SDS011;74589;48.846;2.382;2024-01-30T13:05:02;5.32;;;2.92;;
84388;SDS011;74589;48.846;2.382;2024-01-30T13:07:28;2.58;;;2.30;;
84388;SDS011;74589;48.846;2.382;2024-01-30T13:09:53;4.18;;;2.40;;
84388;SDS011;74589;48.846;2.382;2024-01-30T13:12:19;5.50;;;2.90;;
84388;SDS011;74589;48.846;2.382;2024-01-30T13:14:45;3.75;;;2.60;;
84388;SDS011;74589;48.846;2.382;2024-01-30T13:17:10;4.28;;;2.35;;
84388;SDS011;74589;48.846;2.382;2024-01-30T13:19:36;3.80;;;2.42;;
84388;SDS011;74589;48.846;2.382;2024-01-30T13:22:01;4.25;;;2.30;;
84388;SDS011;74589;48.846;2.382;2024-01-30T13:24:27;3.53;;;2.35;;
84388;SDS011;74589;48.846;2.382;2024-01-30T13:26:53;5.72;;;2.65;;
84388;SDS011;74589;48.846;2.382;2024-01-30T13:29:18;3.90;;;2.33;;
84388;SDS011;74589;48.846;2.382;2024-01-30T13:31:44;2.90;;;2.38;;
84388;SDS011;74589;48.846;2.382;2024-01-30T13:34:11;3.90;;;2.25;;
84388;SDS011;74589;48.846;2.382;2024-01-30T13:36:37;4.00;;;2.50;;
84388;SDS011;74589;48.846;2.382;2024-01-30T13:39:03;5.65;;;2.45;;
84388;SDS011;74589;48.846;2.382;2024-01-30T13:41:32;4.93;;;2.60;;
84388;SDS011;74589;48.846;2.382;2024-01-30T13:43:58;4.32;;;2.70;;
84388;SDS011;74589;48.846;2.382;2024-01-30T13:46:23;4.85;;;3.00;;
84388;SDS011;74589;48.846;2.382;2024-01-30T13:48:50;6.68;;;2.97;;
84388;SDS011;74589;48.846;2.382;2024-01-30T13:51:15;3.55;;;2.60;;
84388;SDS011;74589;48.846;2.382;2024-01-30T13:53:42;5.88;;;3.28;;
84388;SDS011;74589;48.846;2.382;2024-01-30T13:56:07;6.05;;;2.80;;
84388;SDS011;74589;48.846;2.382;2024-01-30T13:58:33;4.88;;;2.63;;
84388;SDS011;74589;48.846;2.382;2024-01-30T14:01:01;4.97;;;2.53;;
84388;SDS011;74589;48.846;2.382;2024-01-30T14:03:27;3.08;;;1.88;;
84388;SDS011;74589;48.846;2.382;2024-01-30T14:05:53;3.50;;;2.30;;
84388;SDS011;74589;48.846;2.382;2024-01-30T14:08:18;2.72;;;2.03;;
84388;SDS011;74589;48.846;2.382;2024-01-30T14:10:46;3.97;;;2.28;;
84388;SDS011;74589;48.846;2.382;2024-01-30T14:13:12;6.50;;;2.63;;
84388;SDS011;74589;48.846;2.382;2024-01-30T14:15:38;3.70;;;2.20;;
84388;SDS011;74589;48.846;2.382;2024-01-30T14:18:04;3.03;;;2.00;;
84388;SDS011;74589;48.846;2.382;2024-01-30T14:20:30;4.90;;;1.88;;
84388;SDS011;74589;48.846;2.382;2024-01-30T14:22:56;2.88;;;1.95;;
84388;SDS011;74589;48.846;2.382;2024-01-30T14:25:22;3.70;;;1.67;;
84388;SDS011;74589;48.846;2.382;2024-01-30T14:27:47;3.45;;;2.10;;
84388;SDS011;74589;48.846;2.382;2024-01-30T14:30:13;4.32;;;2.17;;
84388;SDS011;74589;48.846;2.382;2024-01-30T14:32:39;2.20;;;1.63;;
84388;SDS011;74589;48.846;2.382;2024-01-30T14:35:05;3.88;;;1.70;;
84388;SDS011;74589;48.846;2.382;2024-01-30T14:37:31;4.57;;;1.80;;
84388;SDS011;74589;48.846;2.382;2024-01-30T14:39:57;4.80;;;1.70;;